createdAt,value
2022-09-12T00:00:20.908Z,62.9
2022-09-12T00:02:04.604Z,63
2022-09-12T00:03:48.296Z,63
2022-09-12T00:05:32.012Z,63
2022-09-12T00:07:15.721Z,63
2022-09-12T00:08:59.415Z,62.9
2022-09-12T00:10:43.099Z,63
2022-09-12T00:12:26.839Z,63
2022-09-12T00:14:10.518Z,63
2022-09-12T00:15:54.226Z,63
2022-09-12T00:17:37.893Z,63
2022-09-12T00:19:21.614Z,63
2022-09-12T00:21:05.317Z,62.9
2022-09-12T00:22:49.020Z,63
2022-09-12T00:24:32.708Z,63
2022-09-12T00:26:16.403Z,63
2022-09-12T00:28:00.111Z,63
2022-09-12T00:29:43.829Z,63
2022-09-12T00:31:27.505Z,63
2022-09-12T00:33:11.224Z,62.9
2022-09-12T00:34:54.919Z,63
2022-09-12T00:36:38.620Z,63
2022-09-12T00:38:22.312Z,63
2022-09-12T00:40:06.029Z,63
2022-09-12T00:41:49.734Z,63
2022-09-12T00:43:33.442Z,63
2022-09-12T00:45:17.141Z,63
2022-09-12T00:47:00.844Z,63
2022-09-12T00:48:44.545Z,62.9
2022-09-12T00:50:28.271Z,63
2022-09-12T00:52:11.948Z,62.9
2022-09-12T00:53:55.654Z,63
2022-09-12T00:55:39.356Z,63
2022-09-12T00:57:23.056Z,63
2022-09-12T00:59:06.768Z,62.9
2022-09-12T01:00:50.455Z,62.9
2022-09-12T01:02:34.156Z,62.9
2022-09-12T01:04:17.871Z,62.9
2022-09-12T01:06:01.561Z,63
2022-09-12T01:07:45.251Z,63
2022-09-12T01:09:28.966Z,63
2022-09-12T01:11:12.665Z,63
2022-09-12T01:12:56.365Z,63
2022-09-12T01:14:40.100Z,63
2022-09-12T01:16:23.762Z,63
2022-09-12T01:18:07.470Z,63
2022-09-12T01:19:51.220Z,63
2022-09-12T01:21:34.855Z,63
2022-09-12T01:23:18.574Z,63
2022-09-12T01:25:02.277Z,63
2022-09-12T01:26:45.975Z,63
2022-09-12T01:28:29.678Z,63
2022-09-12T01:30:13.429Z,63
2022-09-12T01:31:57.072Z,63
2022-09-12T01:33:40.784Z,63
2022-09-12T01:35:24.536Z,63
2022-09-12T01:37:08.178Z,63
2022-09-12T01:38:51.888Z,63
2022-09-12T01:40:35.671Z,63
2022-09-12T01:42:19.298Z,63
2022-09-12T01:44:02.996Z,63
2022-09-12T01:45:46.691Z,63
2022-09-12T01:47:30.406Z,63
2022-09-12T01:49:14.126Z,63
2022-09-12T01:50:57.805Z,62.9
2022-09-12T01:52:41.497Z,62.9
2022-09-12T01:54:25.214Z,62.9
2022-09-12T01:56:08.911Z,62.9
2022-09-12T01:57:52.611Z,62.9
2022-09-12T01:59:36.313Z,62.8
2022-09-12T02:01:20.018Z,62.8
2022-09-12T02:03:03.745Z,62.8
2022-09-12T02:04:47.451Z,62.8
2022-09-12T02:06:31.135Z,62.8
2022-09-12T02:08:14.825Z,62.8
2022-09-12T02:09:58.516Z,62.9
2022-09-12T02:11:42.216Z,62.9
2022-09-12T02:13:25.911Z,62.8
2022-09-12T02:15:09.704Z,62.8
2022-09-12T02:16:53.326Z,62.8
2022-09-12T02:18:37.017Z,62.8
2022-09-12T02:20:20.728Z,62.8
2022-09-12T02:22:04.421Z,62.7
2022-09-12T02:23:48.120Z,62.7
2022-09-12T02:25:31.810Z,62.7
2022-09-12T02:27:15.524Z,62.7
2022-09-12T02:28:59.241Z,62.7
2022-09-12T02:30:42.930Z,62.7
2022-09-12T02:32:26.622Z,62.6
2022-09-12T02:34:10.314Z,62.6
2022-09-12T02:35:54.036Z,62.7
2022-09-12T02:37:37.778Z,62.6
2022-09-12T02:39:21.430Z,62.6
2022-09-12T02:41:05.136Z,62.6
2022-09-12T02:42:48.825Z,62.6
2022-09-12T02:44:32.530Z,62.6
2022-09-12T02:46:16.218Z,62.6
2022-09-12T02:47:59.926Z,62.5
2022-09-12T02:49:43.648Z,62.6
2022-09-12T02:51:27.343Z,62.5
2022-09-12T02:53:11.043Z,62.5
2022-09-12T02:54:54.736Z,62.6
2022-09-12T02:56:38.443Z,62.5
2022-09-12T02:58:22.136Z,62.5
2022-09-12T03:00:05.842Z,62.6
2022-09-12T03:01:49.538Z,62.6
2022-09-12T03:03:33.243Z,62.5
2022-09-12T03:05:16.945Z,62.5
2022-09-12T03:07:00.644Z,62.5
2022-09-12T03:08:44.360Z,62.4
2022-09-12T03:10:28.060Z,62.5
2022-09-12T03:12:11.750Z,62.5
2022-09-12T03:13:55.468Z,62.4
2022-09-12T03:15:39.163Z,62.5
2022-09-12T03:17:22.876Z,62.5
2022-09-12T03:19:06.560Z,62.4
2022-09-12T03:20:50.271Z,62.4
2022-09-12T03:22:33.963Z,62.4
2022-09-12T03:24:17.690Z,62.4
2022-09-12T03:26:01.388Z,62.4
2022-09-12T03:27:45.102Z,62.4
2022-09-12T03:29:28.791Z,62.4
2022-09-12T03:31:12.492Z,62.4
2022-09-12T03:32:56.194Z,62.4
2022-09-12T03:34:39.901Z,62.4
2022-09-12T03:36:23.634Z,62.4
2022-09-12T03:38:07.302Z,62.4
2022-09-12T03:39:51.022Z,62.3
2022-09-12T03:41:34.720Z,62.4
2022-09-12T03:43:18.409Z,62.3
2022-09-12T03:45:02.115Z,62.4
2022-09-12T03:46:45.823Z,62.3
2022-09-12T03:48:29.563Z,62.3
2022-09-12T03:50:13.247Z,62.4
2022-09-12T03:51:56.921Z,62.3
2022-09-12T03:53:40.634Z,62.3
2022-09-12T03:55:24.349Z,62.3
2022-09-12T03:57:08.055Z,62.4
2022-09-12T03:58:51.766Z,62.4
2022-09-12T04:00:35.477Z,62.3
2022-09-12T04:02:19.139Z,62.3
2022-09-12T04:04:02.855Z,62.3
2022-09-12T04:05:46.582Z,62.3
2022-09-12T04:07:30.256Z,62.4
2022-09-12T04:09:13.960Z,62.3
2022-09-12T04:10:57.659Z,62.3
2022-09-12T04:12:41.378Z,62.3
2022-09-12T04:14:25.086Z,62.4
2022-09-12T04:16:08.782Z,62.4
2022-09-12T04:17:52.502Z,62.3
2022-09-12T04:19:36.185Z,62.4
2022-09-12T04:21:20.178Z,62.3
2022-09-12T04:23:03.603Z,62.3
2022-09-12T04:24:47.297Z,62.3
2022-09-12T04:26:31.031Z,62.3
2022-09-12T04:28:14.707Z,62.3
2022-09-12T04:29:58.445Z,62.3
2022-09-12T04:31:42.102Z,62.3
2022-09-12T04:33:25.816Z,62.3
2022-09-12T04:35:09.540Z,62.2
2022-09-12T04:36:53.221Z,62.3
2022-09-12T04:38:36.914Z,62.3
2022-09-12T04:40:20.627Z,62.2
2022-09-12T04:42:04.322Z,62.2
2022-09-12T04:43:48.058Z,62.2
2022-09-12T04:45:31.724Z,62.2
2022-09-12T04:47:15.415Z,62.2
2022-09-12T04:48:59.162Z,62.2
2022-09-12T04:50:42.838Z,62.2
2022-09-12T04:52:26.518Z,62.3
2022-09-12T04:54:10.222Z,62.2
2022-09-12T04:55:53.968Z,62.2
2022-09-12T04:57:37.640Z,62.2
2022-09-12T04:59:21.408Z,62.2
2022-09-12T05:01:05.039Z,62.2
2022-09-12T05:02:48.748Z,62.2
2022-09-12T05:04:32.451Z,62.2
2022-09-12T05:06:16.125Z,62.1
2022-09-12T05:07:59.834Z,62.2
2022-09-12T05:09:43.533Z,62.2
2022-09-12T05:11:27.262Z,62.1
2022-09-12T05:13:10.994Z,62.1
2022-09-12T05:14:54.632Z,62.1
2022-09-12T05:16:38.346Z,62.1
2022-09-12T05:18:22.043Z,62.1
2022-09-12T05:20:05.747Z,62.1
2022-09-12T05:21:49.436Z,62.1
2022-09-12T05:23:33.144Z,62.1
2022-09-12T05:25:16.939Z,62.1
2022-09-12T05:27:00.586Z,62
2022-09-12T05:28:44.257Z,62
2022-09-12T05:30:27.976Z,62
2022-09-12T05:32:11.695Z,62
2022-09-12T05:33:55.381Z,61.9
2022-09-12T05:35:39.067Z,61.9
2022-09-12T05:37:22.762Z,61.9
2022-09-12T05:39:06.472Z,61.9
2022-09-12T05:40:50.176Z,61.9
2022-09-12T05:44:17.576Z,61.8
2022-09-12T05:46:01.279Z,61.8
2022-09-12T05:47:44.983Z,61.8
2022-09-12T05:49:28.663Z,61.8
2022-09-12T05:51:12.382Z,61.7
2022-09-12T05:52:56.076Z,61.7
2022-09-12T05:54:39.865Z,61.7
2022-09-12T05:56:23.471Z,61.7
2022-09-12T05:58:07.163Z,61.7
2022-09-12T05:59:50.881Z,61.6
2022-09-12T06:01:34.589Z,61.6
2022-09-12T06:03:18.280Z,61.6
2022-09-12T06:05:01.976Z,61.5
2022-09-12T06:06:45.690Z,61.5
2022-09-12T06:08:29.386Z,61.5
2022-09-12T06:10:13.074Z,61.4
2022-09-12T06:11:56.777Z,61.4
2022-09-12T06:13:40.512Z,61.3
2022-09-12T06:15:24.194Z,61.3
2022-09-12T06:17:07.897Z,61.1
2022-09-12T06:18:51.590Z,61.1
2022-09-12T06:20:35.293Z,61.1
2022-09-12T06:22:18.988Z,61.1
2022-09-12T06:24:02.686Z,61
2022-09-12T06:25:46.405Z,60.9
2022-09-12T06:27:30.128Z,60.8
2022-09-12T06:29:13.815Z,60.8
2022-09-12T06:30:57.545Z,60.7
2022-09-12T06:32:41.204Z,60.6
2022-09-12T06:34:24.914Z,60.5
2022-09-12T06:36:08.612Z,60.4
2022-09-12T06:37:52.316Z,60.1
2022-09-12T06:39:36.034Z,60.1
2022-09-12T06:41:19.718Z,60
2022-09-12T06:43:03.423Z,59.9
2022-09-12T06:44:47.131Z,59.6
2022-09-12T06:46:30.837Z,59.5
2022-09-12T06:48:14.540Z,59.5
2022-09-12T06:49:58.225Z,59.5
2022-09-12T06:51:41.940Z,59.4
2022-09-12T06:53:25.644Z,59.4
2022-09-12T06:55:09.355Z,59.4
2022-09-12T06:56:53.064Z,59.4
2022-09-12T06:58:36.789Z,59.4
2022-09-12T07:00:20.457Z,59.3
2022-09-12T07:02:04.179Z,59.3
2022-09-12T07:03:47.874Z,59.4
2022-09-12T07:05:31.568Z,59.4
2022-09-12T07:07:15.278Z,59.2
2022-09-12T07:08:58.982Z,59
2022-09-12T07:10:42.732Z,58.9
2022-09-12T07:12:26.392Z,59
2022-09-12T07:14:10.071Z,59.1
2022-09-12T07:15:53.788Z,59.1
2022-09-12T07:17:37.515Z,59.1
2022-09-12T07:19:21.182Z,59.1
2022-09-12T07:21:04.873Z,59.1
2022-09-12T07:22:48.591Z,59.1
2022-09-12T07:24:32.268Z,59.1
2022-09-12T07:26:15.973Z,59.1
2022-09-12T07:27:59.692Z,59.1
2022-09-12T07:29:43.383Z,59.1
2022-09-12T07:31:27.089Z,59
2022-09-12T07:33:10.783Z,59.1
2022-09-12T07:34:54.497Z,59.1
2022-09-12T07:36:38.179Z,59
2022-09-12T07:40:05.603Z,58.9
2022-09-12T07:41:49.287Z,58.9
2022-09-12T07:43:33.048Z,58.8
2022-09-12T07:45:16.691Z,58.8
2022-09-12T07:47:00.389Z,58.7
2022-09-12T07:48:44.103Z,58.7
2022-09-12T07:50:27.806Z,58.6
2022-09-12T07:52:11.481Z,58.5
2022-09-12T07:53:55.200Z,58.4
2022-09-12T07:55:38.897Z,58.3
2022-09-12T07:57:22.611Z,58.2
2022-09-12T07:59:06.314Z,58
2022-09-12T08:00:49.980Z,57.8
2022-09-12T08:02:33.709Z,57.4
2022-09-12T08:04:17.406Z,57
2022-09-12T08:06:01.099Z,56.6
2022-09-12T08:07:44.842Z,56.3
2022-09-12T08:09:28.484Z,55.9
2022-09-12T08:11:12.191Z,55.3
2022-09-12T08:12:55.886Z,54.8
2022-09-12T08:14:39.601Z,54.3
2022-09-12T08:16:23.301Z,53.6
2022-09-12T08:18:07.007Z,53.3
2022-09-12T08:19:50.698Z,53.1
2022-09-12T08:21:34.400Z,53
2022-09-12T08:23:18.165Z,53
2022-09-12T08:25:01.877Z,52.8
2022-09-12T08:26:45.502Z,52.4
2022-09-12T08:28:29.214Z,52
2022-09-12T08:30:12.933Z,51.8
2022-09-12T08:31:56.628Z,51.6
2022-09-12T08:33:40.314Z,51.4
2022-09-12T08:35:24.020Z,51.4
2022-09-12T08:37:07.723Z,51.2
2022-09-12T08:38:51.422Z,51.1
2022-09-12T08:40:35.122Z,51.1
2022-09-12T08:42:18.908Z,51.1
2022-09-12T08:44:02.531Z,51
2022-09-12T08:45:46.235Z,51.1
2022-09-12T08:47:30.022Z,51.1
2022-09-12T08:49:13.653Z,51.1
2022-09-12T08:51:17.687Z,51.1
2022-09-12T08:52:41.015Z,51.2
2022-09-12T08:54:24.769Z,51.3
2022-09-12T08:56:08.445Z,51.3
2022-09-12T08:57:52.144Z,51.4
2022-09-12T08:59:35.835Z,51.4
2022-09-12T09:01:19.545Z,51.5
2022-09-12T09:03:03.238Z,51.6
2022-09-12T09:04:46.932Z,51.6
2022-09-12T09:06:30.662Z,51.8
2022-09-12T09:08:14.362Z,51.8
2022-09-12T09:09:58.054Z,51.9
2022-09-12T09:11:41.746Z,52.1
2022-09-12T09:13:25.451Z,52.2
2022-09-12T09:15:09.149Z,52.4
2022-09-12T09:16:52.848Z,52.5
2022-09-12T09:18:36.543Z,52.6
2022-09-12T09:20:20.247Z,52.7
2022-09-12T09:22:03.962Z,52.8
2022-09-12T09:23:47.663Z,52.9
2022-09-12T09:25:31.354Z,53
2022-09-12T09:27:15.076Z,53.1
2022-09-12T09:28:58.804Z,53.2
2022-09-12T09:30:42.489Z,53.3
2022-09-12T09:32:26.175Z,53.4
2022-09-12T09:34:09.883Z,53.4
2022-09-12T09:35:53.638Z,53.5
2022-09-12T09:37:37.284Z,53.5
2022-09-12T09:39:21.026Z,53.6
2022-09-12T09:41:04.696Z,53.6
2022-09-12T09:42:48.392Z,53.7
2022-09-12T09:44:32.092Z,53.7
2022-09-12T09:46:15.789Z,53.8
2022-09-12T09:47:59.509Z,53.8
2022-09-12T09:49:43.294Z,53.9
2022-09-12T09:51:26.897Z,53.9
2022-09-12T09:53:10.633Z,54
2022-09-12T09:54:54.342Z,54
2022-09-12T09:56:38.078Z,54
2022-09-12T09:58:21.728Z,54
2022-09-12T10:00:05.427Z,54.1
2022-09-12T10:01:49.139Z,54.1
2022-09-12T10:03:32.885Z,54.1
2022-09-12T10:05:16.649Z,54.1
2022-09-12T10:07:00.225Z,54.2
2022-09-12T10:08:43.944Z,54.2
2022-09-12T10:10:27.701Z,54.2
2022-09-12T10:12:11.333Z,54.2
2022-09-12T10:13:55.047Z,54.3
2022-09-12T10:15:38.739Z,54.3
2022-09-12T10:17:22.456Z,54.3
2022-09-12T10:19:06.161Z,54.3
2022-09-12T10:20:49.853Z,54.4
2022-09-12T10:22:33.694Z,54.4
2022-09-12T10:24:17.248Z,54.4
2022-09-12T10:26:00.938Z,54.4
2022-09-12T10:27:44.654Z,54.4
2022-09-12T10:29:28.359Z,54.3
2022-09-12T10:31:12.059Z,54.3
2022-09-12T10:32:55.766Z,54.3
2022-09-12T10:34:39.463Z,54.3
2022-09-12T10:36:23.156Z,54.3
2022-09-12T10:38:06.874Z,54.2
2022-09-12T10:39:50.554Z,54.2
2022-09-12T10:41:34.270Z,54.2
2022-09-12T10:43:17.978Z,54.1
2022-09-12T10:45:01.699Z,54.1
2022-09-12T10:46:45.365Z,54.1
2022-09-12T10:48:29.078Z,54.1
2022-09-12T10:50:12.787Z,54
2022-09-12T10:51:56.618Z,54
2022-09-12T10:53:40.178Z,54
2022-09-12T10:55:23.870Z,54
2022-09-12T10:57:07.618Z,54
2022-09-12T10:58:51.293Z,54
2022-09-12T11:00:34.983Z,54
2022-09-12T11:02:18.770Z,54
2022-09-12T11:04:02.413Z,53.9
2022-09-12T11:05:46.121Z,53.9
2022-09-12T11:07:29.842Z,53.9
2022-09-12T11:09:13.514Z,53.8
2022-09-12T11:10:57.224Z,53.8
2022-09-12T11:12:40.901Z,53.8
2022-09-12T11:14:24.741Z,53.8
2022-09-12T11:16:08.310Z,53.8
2022-09-12T11:17:52.033Z,53.9
2022-09-12T11:19:35.718Z,53.9
2022-09-12T11:21:19.418Z,53.9
2022-09-12T11:23:03.146Z,53.9
2022-09-12T11:24:46.823Z,53.9
2022-09-12T11:26:30.515Z,53.9
2022-09-12T11:28:14.313Z,54
2022-09-12T11:29:57.946Z,54
2022-09-12T11:31:41.688Z,54
2022-09-12T11:33:25.345Z,54
2022-09-12T11:35:09.063Z,54
2022-09-12T11:36:52.727Z,53.9
2022-09-12T11:38:36.445Z,54
2022-09-12T11:40:20.136Z,54
2022-09-12T11:42:03.824Z,54
2022-09-12T11:43:47.528Z,54
2022-09-12T11:45:31.255Z,54
2022-09-12T11:47:14.938Z,54
2022-09-12T11:48:58.656Z,54
2022-09-12T11:50:42.348Z,54
2022-09-12T11:52:26.065Z,54
2022-09-12T11:54:09.771Z,54.1
2022-09-12T11:55:53.484Z,54.1
2022-09-12T11:57:37.290Z,54.1
2022-09-12T11:59:20.871Z,54.2
2022-09-12T12:01:04.585Z,54.1
2022-09-12T12:02:48.298Z,54.1
2022-09-12T12:04:31.999Z,54
2022-09-12T12:06:15.683Z,53.9
2022-09-12T12:07:59.386Z,53.9
2022-09-12T12:09:43.113Z,53.9
2022-09-12T12:11:26.792Z,53.9
2022-09-12T12:13:10.497Z,53.9
2022-09-12T12:14:54.185Z,53.9
2022-09-12T12:16:37.907Z,54
2022-09-12T12:18:21.654Z,54
2022-09-12T12:20:05.300Z,54
2022-09-12T12:21:49.001Z,54
2022-09-12T12:23:32.703Z,54.1
2022-09-12T12:25:16.410Z,54.2
2022-09-12T12:27:00.104Z,54.2
2022-09-12T12:28:43.796Z,54.3
2022-09-12T12:30:27.510Z,54.3
2022-09-12T12:32:11.219Z,54.4
2022-09-12T12:33:54.906Z,54.4
2022-09-12T12:35:38.619Z,54.5
2022-09-12T12:37:22.311Z,54.5
2022-09-12T12:39:06.027Z,54.5
2022-09-12T12:40:49.740Z,54.6
2022-09-12T12:42:33.431Z,54.6
2022-09-12T12:44:17.153Z,54.7
2022-09-12T12:46:00.835Z,54.7
2022-09-12T12:47:44.547Z,54.7
2022-09-12T12:49:28.260Z,54.8
2022-09-12T12:51:11.957Z,54.8
2022-09-12T12:52:55.657Z,54.8
2022-09-12T12:54:39.370Z,54.9
2022-09-12T12:56:23.070Z,54.9
2022-09-12T12:58:06.776Z,54.9
2022-09-12T12:59:50.477Z,55
2022-09-12T13:01:34.186Z,55
2022-09-12T13:03:17.976Z,55
2022-09-12T13:05:01.604Z,55.1
2022-09-12T13:06:45.282Z,55.1
2022-09-12T13:08:28.998Z,55.1
2022-09-12T13:10:12.724Z,55.2
2022-09-12T13:11:56.405Z,55.2
2022-09-12T13:13:40.130Z,55.3
2022-09-12T13:15:23.872Z,55.3
2022-09-12T13:17:07.496Z,55.4
2022-09-12T13:18:51.213Z,55.4
2022-09-12T13:20:34.919Z,55.4
2022-09-12T13:22:18.628Z,55.5
2022-09-12T13:24:02.314Z,55.5
2022-09-12T13:25:46.022Z,55.6
2022-09-12T13:27:29.732Z,55.6
2022-09-12T13:29:13.426Z,55.6
2022-09-12T13:30:57.265Z,55.7
2022-09-12T13:32:40.830Z,55.7
2022-09-12T13:34:24.534Z,55.7
2022-09-12T13:36:08.268Z,55.8
2022-09-12T13:37:51.939Z,55.8
2022-09-12T13:39:35.643Z,55.8
2022-09-12T13:41:19.342Z,55.9
2022-09-12T13:43:03.090Z,55.9
2022-09-12T13:44:46.743Z,55.9
2022-09-12T13:46:30.449Z,55.9
2022-09-12T13:48:14.146Z,55.9
2022-09-12T13:49:57.871Z,56
2022-09-12T13:51:41.554Z,56
2022-09-12T13:53:25.255Z,56
2022-09-12T13:55:08.961Z,56
2022-09-12T13:56:52.653Z,56
2022-09-12T13:58:36.376Z,56
2022-09-12T14:00:20.090Z,56
2022-09-12T14:02:03.750Z,56
2022-09-12T14:03:47.448Z,56
2022-09-12T14:05:31.159Z,56
2022-09-12T14:07:14.857Z,56
2022-09-12T14:08:58.561Z,56.1
2022-09-12T14:10:42.270Z,56.1
2022-09-12T14:12:26.058Z,56.1
2022-09-12T14:14:09.674Z,56.1
2022-09-12T14:15:53.486Z,56.1
2022-09-12T14:17:37.083Z,56.1
2022-09-12T14:19:20.772Z,56.1
2022-09-12T14:21:04.482Z,56.1
2022-09-12T14:22:48.179Z,56.2
2022-09-12T14:24:32.061Z,56.2
2022-09-12T14:26:15.638Z,56.2
2022-09-12T14:29:42.988Z,56.3
2022-09-12T14:31:26.729Z,56.3
2022-09-12T14:33:10.426Z,56.3
2022-09-12T14:34:54.093Z,56.3
2022-09-12T14:36:37.834Z,56.3
2022-09-12T14:38:21.508Z,56.3
2022-09-12T14:40:05.206Z,56.3
2022-09-12T14:41:48.916Z,56.3
2022-09-12T14:43:32.612Z,56.3
2022-09-12T14:45:16.319Z,56.4
2022-09-12T14:47:00.017Z,56.4
2022-09-12T14:50:27.442Z,56.4
2022-09-12T14:52:11.162Z,56.4
2022-09-12T14:53:54.842Z,56.4
2022-09-12T14:55:38.540Z,56.4
2022-09-12T14:57:22.257Z,56.4
2022-09-12T14:59:05.954Z,56.4
2022-09-12T15:00:49.642Z,56.5
2022-09-12T15:02:33.365Z,56.4
2022-09-12T15:04:17.050Z,56.5
2022-09-12T15:06:00.745Z,56.5
2022-09-12T15:07:44.722Z,56.5
2022-09-12T15:09:28.172Z,56.5
2022-09-12T15:11:11.911Z,56.5
2022-09-12T15:12:55.570Z,56.5
2022-09-12T15:14:39.277Z,56.5
2022-09-12T15:16:22.973Z,56.5
2022-09-12T15:18:06.664Z,56.5
2022-09-12T15:19:50.415Z,56.6
2022-09-12T15:21:34.090Z,56.6
2022-09-12T15:23:17.808Z,56.6
2022-09-12T15:25:01.493Z,56.6
2022-09-12T15:26:45.194Z,56.6
2022-09-12T15:28:28.893Z,56.6
2022-09-12T15:30:12.595Z,56.7
2022-09-12T15:31:56.312Z,56.7
2022-09-12T15:33:40.065Z,56.7
2022-09-12T15:35:23.734Z,56.7
2022-09-12T15:37:07.407Z,56.7
2022-09-12T15:38:51.122Z,56.8
2022-09-12T15:40:34.828Z,56.8
2022-09-12T15:42:18.529Z,56.8
2022-09-12T15:44:02.233Z,56.8
2022-09-12T15:45:45.921Z,56.9
2022-09-12T15:47:29.642Z,56.9
2022-09-12T15:49:13.385Z,56.9
2022-09-12T15:50:57.044Z,56.9
2022-09-12T15:52:40.745Z,56.9
2022-09-12T15:54:24.430Z,56.9
2022-09-12T15:56:08.150Z,56.9
2022-09-12T15:57:06.767Z,56.3
2022-09-12T15:57:51.889Z,56.9
2022-09-12T15:59:35.544Z,56.9
2022-09-12T16:01:19.256Z,57
2022-09-12T16:03:02.948Z,57
2022-09-12T16:04:46.940Z,57
2022-09-12T16:06:30.391Z,57
2022-09-12T16:08:14.052Z,57
2022-09-12T16:09:57.773Z,57
2022-09-12T16:11:41.457Z,57
2022-09-12T16:13:25.173Z,57
2022-09-12T16:15:08.879Z,57
2022-09-12T16:16:52.560Z,57.1
2022-09-12T16:18:36.268Z,57.1
2022-09-12T16:20:19.951Z,57.1
2022-09-12T16:22:03.663Z,57.2
2022-09-12T16:23:47.361Z,57.2
2022-09-12T16:25:31.057Z,57.2
2022-09-12T16:27:14.764Z,57.3
2022-09-12T16:28:58.441Z,57.3
2022-09-12T16:30:42.184Z,57.3
2022-09-12T16:32:25.869Z,57.4
2022-09-12T16:34:09.596Z,57.4
2022-09-12T16:35:53.268Z,57.4
2022-09-12T16:37:36.984Z,57.5
2022-09-12T16:39:20.666Z,57.5
2022-09-12T16:41:04.401Z,57.5
2022-09-12T16:42:48.065Z,57.6
2022-09-12T16:44:31.777Z,57.7
2022-09-12T16:46:15.494Z,57.7
2022-09-12T16:47:59.202Z,57.8
2022-09-12T16:49:42.862Z,57.8
2022-09-12T16:51:26.567Z,57.9
2022-09-12T16:53:10.290Z,58
2022-09-12T16:54:53.969Z,57.9
2022-09-12T16:56:37.664Z,58
2022-09-12T16:58:21.383Z,58
2022-09-12T17:00:05.087Z,58.1
2022-09-12T17:01:48.766Z,58.1
2022-09-12T17:03:32.486Z,58.2
2022-09-12T17:05:16.191Z,58.3
2022-09-12T17:06:59.896Z,58.3
2022-09-12T17:08:43.688Z,58.4
2022-09-12T17:10:27.281Z,58.4
2022-09-12T17:12:11.047Z,58.5
2022-09-12T17:13:54.706Z,58.6
2022-09-12T17:15:38.402Z,58.6
2022-09-12T17:17:22.118Z,58.7
2022-09-12T17:19:05.810Z,58.8
2022-09-12T17:20:49.530Z,58.8
2022-09-12T17:22:33.236Z,58.9
2022-09-12T17:24:16.959Z,58.9
2022-09-12T17:26:00.590Z,59
2022-09-12T17:27:44.273Z,59
2022-09-12T17:29:27.999Z,59.1
2022-09-12T17:31:11.668Z,59.2
2022-09-12T17:32:55.393Z,59.3
2022-09-12T17:34:39.166Z,59.3
2022-09-12T17:36:22.769Z,59.3
2022-09-12T17:38:06.478Z,59.4
2022-09-12T17:39:50.203Z,59.5
2022-09-12T17:41:33.904Z,59.5
2022-09-12T17:43:17.584Z,59.6
2022-09-12T17:45:01.282Z,59.6
2022-09-12T17:46:44.995Z,59.7
2022-09-12T17:48:28.692Z,59.7
2022-09-12T17:50:12.388Z,59.8
2022-09-12T17:51:56.089Z,59.8
2022-09-12T17:53:39.792Z,59.9
2022-09-12T17:55:23.478Z,60
2022-09-12T17:57:07.188Z,60
2022-09-12T17:58:50.877Z,60.1
2022-09-12T18:00:34.672Z,60.1
2022-09-12T18:02:18.343Z,60.2
2022-09-12T18:04:02.050Z,60.2
2022-09-12T18:05:45.692Z,60.2
2022-09-12T18:07:29.419Z,60.2
2022-09-12T18:09:13.109Z,60.3
2022-09-12T18:10:56.842Z,60.3
2022-09-12T18:12:40.506Z,60.3
2022-09-12T18:14:24.245Z,60.4
2022-09-12T18:16:07.941Z,60.4
2022-09-12T18:17:51.614Z,60.4
2022-09-12T18:19:35.340Z,60.5
2022-09-12T18:21:19.035Z,60.5
2022-09-12T18:23:02.727Z,60.5
2022-09-12T18:24:46.425Z,60.5
2022-09-12T18:26:30.165Z,60.5
2022-09-12T18:28:13.876Z,60.6
2022-09-12T18:29:57.617Z,60.6
2022-09-12T18:31:41.283Z,60.7
2022-09-12T18:33:24.964Z,60.7
2022-09-12T18:35:08.680Z,60.7
2022-09-12T18:36:52.394Z,60.7
2022-09-12T18:38:36.100Z,60.7
2022-09-12T18:40:19.758Z,60.7
2022-09-12T18:42:03.492Z,60.8
2022-09-12T18:43:47.168Z,60.8
2022-09-12T18:45:30.872Z,60.8
2022-09-12T18:47:14.567Z,60.8
2022-09-12T18:48:58.301Z,60.9
2022-09-12T18:50:41.965Z,60.9
2022-09-12T18:52:25.683Z,60.9
2022-09-12T18:54:09.409Z,60.9
2022-09-12T18:55:53.066Z,61
2022-09-12T18:57:36.788Z,61
2022-09-12T18:59:20.497Z,61
2022-09-12T19:01:04.167Z,61
2022-09-12T19:02:47.872Z,61
2022-09-12T19:04:31.604Z,61
2022-09-12T19:06:15.318Z,61
2022-09-12T19:07:58.984Z,61.1
2022-09-12T19:09:42.717Z,61.1
2022-09-12T19:11:26.398Z,61.1
2022-09-12T19:13:10.129Z,61.1
2022-09-12T19:14:53.821Z,61.1
2022-09-12T19:16:37.479Z,61.1
2022-09-12T19:18:21.236Z,61.2
2022-09-12T19:20:04.911Z,61.2
2022-09-12T19:21:48.628Z,61.1
2022-09-12T19:23:32.299Z,61.2
2022-09-12T19:25:16.041Z,61.2
2022-09-12T19:26:59.709Z,61.2
2022-09-12T19:28:43.397Z,61.2
2022-09-12T19:30:27.146Z,61.3
2022-09-12T19:32:10.804Z,61.3
2022-09-12T19:33:54.526Z,61.3
2022-09-12T19:35:38.191Z,61.3
2022-09-12T19:37:21.887Z,61.3
2022-09-12T19:39:05.599Z,61.4
2022-09-12T19:40:49.318Z,61.4
2022-09-12T19:42:33.011Z,61.4
2022-09-12T19:44:16.707Z,61.4
2022-09-12T19:46:00.423Z,61.4
2022-09-12T19:47:44.153Z,61.4
2022-09-12T19:49:27.817Z,61.5
2022-09-12T19:51:11.517Z,61.5
2022-09-12T19:52:55.231Z,61.5
2022-09-12T19:54:38.940Z,61.5
2022-09-12T19:56:22.626Z,61.5
2022-09-12T19:58:06.331Z,61.5
2022-09-12T19:59:50.022Z,61.5
2022-09-12T20:01:33.777Z,61.5
2022-09-12T20:03:17.439Z,61.6
2022-09-12T20:05:01.142Z,61.6
2022-09-12T20:06:44.855Z,61.6
2022-09-12T20:08:28.564Z,61.6
2022-09-12T20:10:12.238Z,61.6
2022-09-12T20:11:55.968Z,61.6
2022-09-12T20:13:39.655Z,61.6
2022-09-12T20:15:23.401Z,61.7
2022-09-12T20:17:07.044Z,61.6
2022-09-12T20:18:50.749Z,61.7
2022-09-12T20:20:34.482Z,61.7
2022-09-12T20:22:18.167Z,61.7
2022-09-12T20:24:01.861Z,61.8
2022-09-12T20:25:45.573Z,61.8
2022-09-12T20:27:29.292Z,61.8
2022-09-12T20:29:12.981Z,61.7
2022-09-12T20:30:56.680Z,61.8
2022-09-12T20:32:40.386Z,61.8
2022-09-12T20:34:24.087Z,61.8
2022-09-12T20:36:07.818Z,61.8
2022-09-12T20:37:51.496Z,61.8
2022-09-12T20:39:35.198Z,61.9
2022-09-12T20:41:18.917Z,61.9
2022-09-12T20:43:02.629Z,61.9
2022-09-12T20:44:46.327Z,61.9
2022-09-12T20:46:30.016Z,61.9
2022-09-12T20:48:13.719Z,61.9
2022-09-12T20:49:57.436Z,61.9
2022-09-12T20:51:41.133Z,61.9
2022-09-12T20:53:24.827Z,61.9
2022-09-12T20:55:08.527Z,61.9
2022-09-12T20:56:52.248Z,61.9
2022-09-12T20:58:35.933Z,61.9
2022-09-12T21:00:19.638Z,62
2022-09-12T21:02:03.326Z,62
2022-09-12T21:03:47.063Z,62
2022-09-12T21:05:30.748Z,62
2022-09-12T21:07:14.494Z,62
2022-09-12T21:08:58.184Z,62
2022-09-12T21:10:41.865Z,62
2022-09-12T21:12:25.572Z,62
2022-09-12T21:14:09.280Z,62
2022-09-12T21:15:52.968Z,62
2022-09-12T21:17:36.675Z,62
2022-09-12T21:19:20.384Z,62.1
2022-09-12T21:21:04.078Z,62.1
2022-09-12T21:22:47.782Z,62
2022-09-12T21:24:31.481Z,62
2022-09-12T21:26:15.253Z,62
2022-09-12T21:27:58.906Z,62.1
2022-09-12T21:29:42.597Z,62.1
2022-09-12T21:31:26.301Z,62
2022-09-12T21:33:10.039Z,62
2022-09-12T21:34:53.709Z,62.1
2022-09-12T21:36:37.412Z,62
2022-09-12T21:38:21.118Z,62.1
2022-09-12T21:40:04.811Z,62.1
2022-09-12T21:41:48.532Z,62.1
2022-09-12T21:43:32.217Z,62.1
2022-09-12T21:45:15.929Z,62.1
2022-09-12T21:46:59.632Z,62.1
2022-09-12T21:48:43.402Z,62.1
2022-09-12T21:50:27.062Z,62.1
2022-09-12T21:52:10.729Z,62.1
2022-09-12T21:53:54.441Z,62.1
2022-09-12T21:55:38.136Z,62.1
2022-09-12T21:57:21.839Z,62.1
2022-09-12T21:59:05.555Z,62.1
2022-09-12T22:00:49.250Z,62.2
2022-09-12T22:02:32.953Z,62.1
2022-09-12T22:04:16.655Z,62.2
2022-09-12T22:06:00.406Z,62.1
2022-09-12T22:07:44.061Z,62.1
2022-09-12T22:09:27.767Z,62.2
2022-09-12T22:11:11.482Z,62.2
2022-09-12T22:12:55.187Z,62.1
2022-09-12T22:14:38.906Z,62.2
2022-09-12T22:16:22.591Z,62.2
2022-09-12T22:18:06.310Z,62.2
2022-09-12T22:19:49.990Z,62.2
2022-09-12T22:21:33.742Z,62.2
2022-09-12T22:23:17.371Z,62.2
2022-09-12T22:25:01.121Z,62.2
2022-09-12T22:26:44.831Z,62.2
2022-09-12T22:28:28.522Z,62.2
2022-09-12T22:30:12.206Z,62.2
2022-09-12T22:31:55.896Z,62.1
2022-09-12T22:33:39.615Z,62.2
2022-09-12T22:35:23.322Z,62.2
2022-09-12T22:37:07.016Z,62.2
2022-09-12T22:38:50.712Z,62.2
2022-09-12T22:40:34.417Z,62.2
2022-09-12T22:42:18.172Z,62.2
2022-09-12T22:44:01.841Z,62.2
2022-09-12T22:45:45.532Z,62.2
2022-09-12T22:47:29.224Z,62.2
2022-09-12T22:49:13.021Z,62.2
2022-09-12T22:50:56.623Z,62.2
2022-09-12T22:52:40.335Z,62.3
2022-09-12T22:54:24.036Z,62.3
2022-09-12T22:56:07.781Z,62.3
2022-09-12T22:57:51.486Z,62.2
2022-09-12T22:59:35.158Z,62.3
2022-09-12T23:01:18.853Z,62.3
2022-09-12T23:03:02.567Z,62.3
2022-09-12T23:04:46.273Z,62.3
2022-09-12T23:06:29.963Z,62.3
2022-09-12T23:08:13.665Z,62.3
2022-09-12T23:09:57.381Z,62.3
2022-09-12T23:11:41.082Z,62.3
2022-09-12T23:13:24.787Z,62.3
2022-09-12T23:15:08.493Z,62.3
2022-09-12T23:16:52.258Z,62.3
2022-09-12T23:18:35.898Z,62.2
2022-09-12T23:20:19.607Z,62.3
2022-09-12T23:22:03.339Z,62.3